createdAt,value
2019-04-22T00:02:12.810Z,23.30
2019-04-22T00:04:55.098Z,22.25
2019-04-22T00:07:40.322Z,21.37
2019-04-22T00:10:16.218Z,21.70
2019-04-22T00:12:49.458Z,21.90
2019-04-22T00:15:13.608Z,21.82
2019-04-22T00:17:54.852Z,20.72
2019-04-22T00:20:22.964Z,22.25
2019-04-22T00:22:52.568Z,21.02
2019-04-22T00:25:34.820Z,19.73
2019-04-22T00:28:05.051Z,19.95
2019-04-22T00:30:36.012Z,20.48
2019-04-22T00:33:17.983Z,21.12
2019-04-22T00:35:41.861Z,18.92
2019-04-22T00:41:05.890Z,20.05
2019-04-22T00:43:28.844Z,20.08
2019-04-22T00:45:49.097Z,20.27
2019-04-22T00:48:29.983Z,20.45
2019-04-22T00:51:05.778Z,21.68
2019-04-22T00:53:34.830Z,20.10
2019-04-22T00:56:14.409Z,20.30
2019-04-22T00:58:48.396Z,21.33
2019-04-22T01:03:58.404Z,19.98
2019-04-22T01:06:20.388Z,20.17
2019-04-22T01:08:57.923Z,20.43
2019-04-22T01:11:29.923Z,18.30
2019-04-22T01:13:55.291Z,17.77
2019-04-22T01:16:28.322Z,18.82
2019-04-22T01:19:00.777Z,19.50
2019-04-22T01:21:40.286Z,19.80
2019-04-22T01:24:05.865Z,19.12
2019-04-22T01:26:34.633Z,18.55
2019-04-22T01:29:05.345Z,17.87
2019-04-22T01:31:31.568Z,17.52
2019-04-22T01:34:10.272Z,17.32
2019-04-22T01:36:56.073Z,16.85
2019-04-22T01:39:33.865Z,17.05
2019-04-22T01:47:10.425Z,15.93
2019-04-22T01:49:40.166Z,15.32
2019-04-22T01:52:12.773Z,13.85
2019-04-22T01:54:48.497Z,14.25
2019-04-22T01:57:18.843Z,14.80
2019-04-22T01:59:40.401Z,15.32
2019-04-22T02:02:23.265Z,15.53
2019-04-22T02:05:02.688Z,14.80
2019-04-22T02:07:30.498Z,15.60
2019-04-22T02:09:55.134Z,14.45
2019-04-22T02:12:32.057Z,15.05
2019-04-22T02:15:06.591Z,15.80
2019-04-22T02:17:36.901Z,15.63
2019-04-22T02:20:26.762Z,12.88
2019-04-22T02:23:30.258Z,14.68
2019-04-22T02:25:54.206Z,12.85
2019-04-22T02:28:32.229Z,13.03
2019-04-22T02:36:18.604Z,13.03
2019-04-22T02:38:57.385Z,13.60
2019-04-22T02:43:51.534Z,12.03
2019-04-22T02:59:05.829Z,14.40
2019-04-22T03:16:51.269Z,14.07
2019-04-22T03:21:50.412Z,12.53
2019-04-22T03:26:59.094Z,12.63
2019-04-22T03:30:10.558Z,12.73
2019-04-22T03:32:59.338Z,11.75
2019-04-22T03:35:31.588Z,11.40
2019-04-22T03:37:34.001Z,13.95
2019-04-22T03:40:07.259Z,12.90
2019-04-22T03:42:46.149Z,12.93
2019-04-22T03:45:12.770Z,12.65
2019-04-22T03:50:24.341Z,11.80
2019-04-22T03:52:35.473Z,13.38
2019-04-22T03:55:18.110Z,13.25
2019-04-22T03:57:50.044Z,13.40
2019-04-22T04:00:32.533Z,13.65
2019-04-22T04:02:54.249Z,12.60
2019-04-22T04:08:18.392Z,13.25
2019-04-22T04:10:35.486Z,14.23
2019-04-22T04:17:59.446Z,14.40
2019-04-22T04:20:47.167Z,14.65
2019-04-22T04:23:17.117Z,14.63
2019-04-22T04:25:46.778Z,14.43
2019-04-22T04:30:57.456Z,13.72
2019-04-22T04:33:35.810Z,13.15
2019-04-22T04:35:58.719Z,12.37
2019-04-22T04:38:28.727Z,11.90
2019-04-22T04:40:57.477Z,10.58
2019-04-22T04:43:35.581Z,11.75
2019-04-22T04:46:06.380Z,9.00
2019-04-22T04:51:16.547Z,10.00
2019-04-22T04:53:47.377Z,9.78
2019-04-22T05:01:35.522Z,10.25
2019-04-22T05:06:36.862Z,10.28
2019-04-22T05:09:16.746Z,11.40
2019-04-22T05:11:43.087Z,10.50
2019-04-22T05:16:32.598Z,10.75
2019-04-22T05:24:09.633Z,9.38
2019-04-22T05:26:44.785Z,9.33
2019-04-22T05:29:12.819Z,10.05
2019-04-22T05:31:43.652Z,9.58
2019-04-22T05:34:19.578Z,10.10
2019-04-22T05:36:47.584Z,9.80
2019-04-22T05:41:48.766Z,10.48
2019-04-22T05:44:38.864Z,9.60
2019-04-22T05:46:49.919Z,11.48
2019-04-22T05:49:23.799Z,10.93
2019-04-22T05:51:54.972Z,11.00
2019-04-22T05:54:47.765Z,11.88
2019-04-22T05:57:06.622Z,11.78
2019-04-22T05:59:37.940Z,11.03
2019-04-22T06:02:18.905Z,10.90
2019-04-22T06:04:44.949Z,10.58
2019-04-22T06:07:13.768Z,11.45
2019-04-22T06:09:49.601Z,12.30
2019-04-22T06:12:18.561Z,11.38
2019-04-22T06:17:30.745Z,11.43
2019-04-22T06:20:02.735Z,11.12
2019-04-22T06:22:51.005Z,10.43
2019-04-22T06:25:16.968Z,9.93
2019-04-22T06:27:42.992Z,9.90
2019-04-22T06:30:15.362Z,9.43
2019-04-22T06:32:42.222Z,9.53
2019-04-22T06:35:23.703Z,10.20
2019-04-22T06:38:09.720Z,9.15
2019-04-22T06:40:19.852Z,8.93
2019-04-22T06:42:58.017Z,9.23
2019-04-22T06:45:23.410Z,8.73
2019-04-22T06:50:34.389Z,8.60
2019-04-22T06:55:33.232Z,8.93
2019-04-22T06:58:05.990Z,9.13
2019-04-22T07:00:42.981Z,9.13
2019-04-22T07:05:47.478Z,9.00
2019-04-22T07:08:39.408Z,7.83
2019-04-22T07:10:50.445Z,7.90
2019-04-22T07:13:27.512Z,8.10
2019-04-22T07:18:33.040Z,7.22
2019-04-22T07:21:03.705Z,7.42
2019-04-22T07:23:33.067Z,8.65
2019-04-22T07:26:04.672Z,7.65
2019-04-22T07:28:29.966Z,7.90
2019-04-22T07:31:11.608Z,8.25
2019-04-22T07:33:45.481Z,6.58
2019-04-22T07:38:45.483Z,7.15
2019-04-22T07:41:25.217Z,7.17
2019-04-22T07:44:08.384Z,7.45
2019-04-22T07:46:26.598Z,7.62
2019-04-22T07:49:00.050Z,7.15
2019-04-22T07:51:32.970Z,6.50
2019-04-22T07:54:01.071Z,5.80
2019-04-22T07:56:40.956Z,6.05
2019-04-22T07:59:09.598Z,6.25
2019-04-22T08:01:39.884Z,6.47
2019-04-22T08:04:24.368Z,6.53
2019-04-22T08:06:46.020Z,6.20
2019-04-22T08:09:20.188Z,6.35
2019-04-22T08:11:52.240Z,6.35
2019-04-22T08:14:22.455Z,7.08
2019-04-22T08:17:00.952Z,7.97
2019-04-22T08:19:27.957Z,7.90
2019-04-22T08:22:02.742Z,8.13
2019-04-22T08:24:35.548Z,8.93
2019-04-22T08:27:04.849Z,10.35
2019-04-22T08:29:59.690Z,9.33
2019-04-22T08:32:11.158Z,8.23
2019-04-22T08:34:39.552Z,8.00
2019-04-22T08:39:40.877Z,7.78
2019-04-22T08:42:32.304Z,7.10
2019-04-22T08:45:05.850Z,6.83
2019-04-22T08:47:29.200Z,6.03
2019-04-22T08:50:04.644Z,7.15
2019-04-22T08:52:27.515Z,7.05
2019-04-22T08:55:04.369Z,5.97
2019-04-22T09:00:20.329Z,5.95
2019-04-22T09:02:38.726Z,6.25
2019-04-22T09:05:11.969Z,6.00
2019-04-22T09:07:46.951Z,5.37
2019-04-22T09:10:21.719Z,5.60
2019-04-22T09:15:26.372Z,5.22
2019-04-22T09:17:55.931Z,5.45
2019-04-22T09:20:28.425Z,5.45
2019-04-22T09:23:03.990Z,6.10
2019-04-22T09:25:36.069Z,5.60
2019-04-22T09:28:10.566Z,6.30
2019-04-22T09:30:42.930Z,6.37
2019-04-22T09:33:13.981Z,5.95
2019-04-22T09:40:52.519Z,6.75
2019-04-22T09:43:25.878Z,6.25
2019-04-22T09:45:52.801Z,7.08
2019-04-22T09:48:33.168Z,7.03
2019-04-22T09:51:00.468Z,7.00
2019-04-22T09:53:41.730Z,6.87
2019-04-22T09:56:03.789Z,7.78
2019-04-22T09:58:39.835Z,7.17
2019-04-22T10:03:53.366Z,8.18
2019-04-22T10:06:33.270Z,8.63
2019-04-22T10:13:59.764Z,8.38
2019-04-22T10:19:04.633Z,8.03
2019-04-22T10:21:43.200Z,8.13
2019-04-22T10:24:12.558Z,8.45
2019-04-22T10:26:40.925Z,8.88
2019-04-22T10:29:14.103Z,7.00
2019-04-22T10:31:43.327Z,8.63
2019-04-22T10:34:07.167Z,8.35
2019-04-22T10:36:23.702Z,8.68
2019-04-22T10:38:54.662Z,7.72
2019-04-22T10:41:26.762Z,8.50
2019-04-22T10:43:57.111Z,7.45
2019-04-22T10:46:28.323Z,7.90
2019-04-22T10:49:00.003Z,7.17
2019-04-22T10:51:32.696Z,6.97
2019-04-22T10:54:05.133Z,4.90
2019-04-22T10:56:36.930Z,6.83
2019-04-22T10:59:08.704Z,8.40
2019-04-22T11:01:40.261Z,6.83
2019-04-22T11:04:11.373Z,6.47
2019-04-22T11:06:51.858Z,7.45
2019-04-22T11:09:14.381Z,7.47
2019-04-22T11:11:54.213Z,7.40
2019-04-22T11:14:17.192Z,6.83
2019-04-22T11:16:47.754Z,5.90
2019-04-22T11:19:19.394Z,6.03
2019-04-22T11:22:01.020Z,6.37
2019-04-22T11:24:23.146Z,5.60
2019-04-22T11:26:54.808Z,6.10
2019-04-22T11:29:27.750Z,6.50
2019-04-22T11:31:58.058Z,5.87
2019-04-22T11:34:29.085Z,5.58
2019-04-22T11:37:01.050Z,6.22
2019-04-22T11:39:34.884Z,6.08
2019-04-22T11:42:04.503Z,5.60
2019-04-22T11:44:35.327Z,4.67
2019-04-22T11:47:07.575Z,5.03
2019-04-22T11:49:39.712Z,4.22
2019-04-22T11:52:14.699Z,5.28
2019-04-22T11:54:43.898Z,5.17
2019-04-22T11:57:15.150Z,5.42
2019-04-22T11:59:46.984Z,4.62
2019-04-22T12:02:23.347Z,5.50
2019-04-22T12:04:56.171Z,5.15
2019-04-22T12:07:27.023Z,5.03
2019-04-22T12:09:59.774Z,6.03
2019-04-22T12:12:30.333Z,5.78
2019-04-22T12:15:00.808Z,6.45
2019-04-22T12:17:32.053Z,6.75
2019-04-22T12:20:05.574Z,7.17
2019-04-22T12:22:35.767Z,6.08
2019-04-22T12:25:12.360Z,8.18
2019-04-22T12:27:43.607Z,7.58
2019-04-22T12:30:16.842Z,8.08
2019-04-22T12:32:48.493Z,7.95
2019-04-22T12:35:19.838Z,6.15
2019-04-22T12:37:55.526Z,8.50
2019-04-22T12:40:34.123Z,9.53
2019-04-22T12:42:57.651Z,8.33
2019-04-22T12:45:28.070Z,8.68
2019-04-22T12:47:58.350Z,6.22
2019-04-22T12:50:33.823Z,9.08
2019-04-22T12:53:08.450Z,8.33
2019-04-22T12:55:34.400Z,7.75
2019-04-22T12:58:05.428Z,8.95
2019-04-22T13:00:38.351Z,8.95
2019-04-22T13:03:09.378Z,8.93
2019-04-22T13:05:41.072Z,9.25
2019-04-22T13:08:11.842Z,9.00
2019-04-22T13:10:53.366Z,10.20
2019-04-22T13:13:15.408Z,9.25
2019-04-22T13:15:46.800Z,9.63
2019-04-22T13:18:27.674Z,8.85
2019-04-22T13:20:50.317Z,7.53
2019-04-22T13:23:22.172Z,8.65
2019-04-22T13:25:52.861Z,10.05
2019-04-22T13:28:25.106Z,10.90
2019-04-22T13:30:57.516Z,10.18
2019-04-22T13:33:28.704Z,10.15
2019-04-22T13:35:59.669Z,9.95
2019-04-22T13:38:31.173Z,10.23
2019-04-22T13:41:17.269Z,10.45
2019-04-22T13:43:34.762Z,10.50
2019-04-22T13:46:06.045Z,9.08
2019-04-22T13:51:45.175Z,11.18
2019-04-22T13:54:13.771Z,10.53
2019-04-22T13:54:36.466Z,11.78
2019-04-22T13:56:40.346Z,12.37
2019-04-22T13:58:58.702Z,11.10
2019-04-22T14:01:22.843Z,11.85
2019-04-22T14:03:58.791Z,11.50
2019-04-22T14:06:31.288Z,11.33
2019-04-22T14:09:03.376Z,11.43
2019-04-22T14:11:48.884Z,11.80
2019-04-22T14:14:09.248Z,12.53
2019-04-22T14:16:40.830Z,12.18
2019-04-22T14:19:12.015Z,11.70
2019-04-22T14:21:46.747Z,12.78
2019-04-22T14:24:15.790Z,11.15
2019-04-22T14:26:59.975Z,11.90
2019-04-22T14:29:19.697Z,11.40
2019-04-22T14:32:02.846Z,12.00
2019-04-22T14:34:22.218Z,11.85
2019-04-22T14:36:53.432Z,10.65
2019-04-22T14:39:24.105Z,11.80
2019-04-22T14:42:15.762Z,11.78
2019-04-22T14:47:19.599Z,12.60
2019-04-22T14:49:52.817Z,11.60
2019-04-22T14:52:31.098Z,11.78
2019-04-22T14:54:50.797Z,12.07
2019-04-22T14:57:08.228Z,11.90
2019-04-22T14:59:39.971Z,12.03
2019-04-22T15:02:11.797Z,12.00
2019-04-22T15:04:43.047Z,12.18
2019-04-22T15:07:14.989Z,11.88
2019-04-22T15:09:48.050Z,12.58
2019-04-22T15:12:30.248Z,12.43
2019-04-22T15:14:53.452Z,12.33
2019-04-22T15:17:34.348Z,10.68
2019-04-22T15:20:15.941Z,10.55
2019-04-22T15:22:46.509Z,13.32
2019-04-22T15:25:16.982Z,11.05
2019-04-22T15:27:47.776Z,12.28
2019-04-22T15:30:21.442Z,11.78
2019-04-22T15:32:52.017Z,12.20
2019-04-22T15:35:25.134Z,11.75
2019-04-22T15:37:57.287Z,12.30
2019-04-22T15:40:29.062Z,11.57
2019-04-22T15:42:59.798Z,12.18
2019-04-22T15:45:30.634Z,9.95
2019-04-22T15:48:04.129Z,12.35
2019-04-22T15:50:35.075Z,12.43
2019-04-22T15:53:07.785Z,13.85
2019-04-22T15:55:38.914Z,13.03
2019-04-22T15:58:10.141Z,12.88
2019-04-22T16:00:52.102Z,12.03
2019-04-22T16:03:14.450Z,11.68
2019-04-22T16:05:46.090Z,13.20
2019-04-22T16:08:17.248Z,12.03
2019-04-22T16:10:48.342Z,13.25
2019-04-22T16:13:24.435Z,12.82
2019-04-22T16:15:54.266Z,12.63
2019-04-22T16:18:26.320Z,14.38
2019-04-22T16:20:58.640Z,13.95
2019-04-22T16:23:31.992Z,14.05
2019-04-22T16:26:07.565Z,13.65
2019-04-22T16:28:39.514Z,13.30
2019-04-22T16:31:11.300Z,14.13
2019-04-22T16:33:45.707Z,14.10
2019-04-22T16:36:14.881Z,15.13
2019-04-22T16:38:46.900Z,14.38
2019-04-22T16:41:18.968Z,13.90
2019-04-22T16:43:50.844Z,15.13
2019-04-22T16:46:21.453Z,13.68
2019-04-22T16:48:51.921Z,14.58
2019-04-22T16:51:22.420Z,14.78
2019-04-22T16:53:53.942Z,14.83
2019-04-22T16:56:24.760Z,13.60
2019-04-22T16:58:56.724Z,16.85
2019-04-22T17:01:43.563Z,16.82
2019-04-22T17:04:30.352Z,15.32
2019-04-22T17:07:01.638Z,14.95
2019-04-22T17:09:32.368Z,13.83
2019-04-22T17:12:03.665Z,13.28
2019-04-22T17:14:42.001Z,13.22
2019-04-22T17:17:06.623Z,13.60
2019-04-22T17:19:37.353Z,13.68
2019-04-22T17:22:08.270Z,13.75
2019-04-22T17:24:39.587Z,13.10
2019-04-22T17:27:10.618Z,13.88
2019-04-22T17:29:41.157Z,13.60
2019-04-22T17:32:15.857Z,14.47
2019-04-22T17:34:43.764Z,15.63
2019-04-22T17:37:19.199Z,15.15
2019-04-22T17:40:04.357Z,15.40
2019-04-22T17:42:39.465Z,14.68
2019-04-22T17:45:27.060Z,14.58
2019-04-22T17:48:16.917Z,14.85
2019-04-22T17:50:57.837Z,15.45
2019-04-22T17:53:27.971Z,14.78
2019-04-22T17:55:57.490Z,14.68
2019-04-22T17:58:25.787Z,15.90
2019-04-22T18:00:53.728Z,16.90
2019-04-22T18:03:20.354Z,15.90
2019-04-22T18:05:49.600Z,15.88
2019-04-22T18:08:34.855Z,16.57
2019-04-22T18:11:06.303Z,16.10
2019-04-22T18:13:44.295Z,15.32
2019-04-22T18:16:14.542Z,16.27
2019-04-22T18:18:43.637Z,16.12
2019-04-22T18:21:16.126Z,15.05
2019-04-22T18:23:39.314Z,17.00
2019-04-22T18:26:20.460Z,15.83
2019-04-22T18:28:55.954Z,21.50
2019-04-22T18:31:23.680Z,19.25
2019-04-22T18:33:56.936Z,16.87
2019-04-22T18:36:29.300Z,14.63
2019-04-22T18:39:04.281Z,13.65
2019-04-22T18:41:34.088Z,14.83
2019-04-22T18:44:14.723Z,14.40
2019-04-22T18:46:36.971Z,16.15
2019-04-22T18:49:10.973Z,13.85
2019-04-22T18:52:00.291Z,15.50
2019-04-22T18:54:36.653Z,16.73
2019-04-22T18:57:02.750Z,17.75
2019-04-22T18:59:26.293Z,19.60
2019-04-22T19:01:52.351Z,19.27
2019-04-22T19:04:31.709Z,19.40
2019-04-22T19:07:32.554Z,20.27
2019-04-22T19:10:08.220Z,20.95
2019-04-22T19:12:38.349Z,22.95
2019-04-22T19:15:03.459Z,23.32
2019-04-22T19:17:45.929Z,25.55
2019-04-22T19:20:15.613Z,22.82
2019-04-22T19:22:45.525Z,23.12
2019-04-22T19:25:08.689Z,24.73
2019-04-22T19:27:40.709Z,26.30
2019-04-22T19:30:16.567Z,28.42
2019-04-22T19:32:51.165Z,29.37
2019-04-22T19:35:17.206Z,27.93
2019-04-22T19:37:52.258Z,25.65
2019-04-22T19:40:42.139Z,22.62
2019-04-22T19:43:02.300Z,23.18
2019-04-22T19:45:35.649Z,23.73
2019-04-22T19:48:14.087Z,22.60
2019-04-22T19:50:44.122Z,22.27
2019-04-22T19:53:17.613Z,20.12
2019-04-22T19:55:46.985Z,20.23
2019-04-22T19:58:18.490Z,20.48
2019-04-22T20:00:47.770Z,19.62
2019-04-22T20:03:49.454Z,21.48
2019-04-22T20:06:34.967Z,20.50
2019-04-22T20:09:06.017Z,20.62
2019-04-22T20:11:41.718Z,19.02
2019-04-22T20:16:41.310Z,18.32
2019-04-22T20:19:25.449Z,21.00
2019-04-22T20:21:53.451Z,20.62
2019-04-22T20:24:11.409Z,23.50
2019-04-22T20:26:56.396Z,28.23
2019-04-22T20:29:30.754Z,24.90
2019-04-22T20:31:59.277Z,27.30
2019-04-22T20:34:38.151Z,23.30
2019-04-22T20:37:10.443Z,23.40
2019-04-22T20:39:37.963Z,21.75
2019-04-22T20:42:22.799Z,20.40
2019-04-22T20:44:46.048Z,19.98
2019-04-22T20:47:12.247Z,19.57
2019-04-22T20:49:47.491Z,18.52
2019-04-22T20:52:26.416Z,18.73
2019-04-22T20:54:51.059Z,19.60
2019-04-22T20:57:25.967Z,20.65
2019-04-22T20:59:52.228Z,20.10
2019-04-22T21:02:18.240Z,20.88
2019-04-22T21:04:49.065Z,23.55
2019-04-22T21:07:28.250Z,23.95
2019-04-22T21:10:03.956Z,24.85
2019-04-22T21:12:27.598Z,23.67
2019-04-22T21:15:16.201Z,24.37
2019-04-22T21:17:42.773Z,26.48
2019-04-22T21:20:17.285Z,25.23
2019-04-22T21:22:48.197Z,24.87
2019-04-22T21:25:15.335Z,20.55
2019-04-22T21:27:59.819Z,19.73
2019-04-22T21:30:29.146Z,19.90
2019-04-22T21:32:58.311Z,18.42
2019-04-22T21:35:47.175Z,16.80
2019-04-22T21:38:16.250Z,16.10
2019-04-22T21:40:40.053Z,16.90
2019-04-22T21:43:18.692Z,17.12
2019-04-22T21:45:43.295Z,16.45
2019-04-22T21:48:27.917Z,16.57
2019-04-22T21:53:36.189Z,16.80
2019-04-22T21:56:11.824Z,16.35
2019-04-22T21:58:31.753Z,15.48
2019-04-22T22:01:16.959Z,16.55
2019-04-22T22:03:38.895Z,15.08
2019-04-22T22:06:04.512Z,16.52
2019-04-22T22:08:45.994Z,14.83
2019-04-22T22:11:13.597Z,15.85
2019-04-22T22:13:45.370Z,14.87
2019-04-22T22:16:14.360Z,15.35
2019-04-22T22:18:57.334Z,14.93
2019-04-22T22:23:59.353Z,15.88
2019-04-22T22:26:33.600Z,14.58
2019-04-22T22:29:05.219Z,15.88
2019-04-22T22:31:41.309Z,16.15
2019-04-22T22:34:12.689Z,16.12
2019-04-22T22:36:33.587Z,16.17
2019-04-22T22:39:05.653Z,15.40
2019-04-22T22:41:21.687Z,15.40
2019-04-22T22:43:57.051Z,13.58
2019-04-22T22:46:35.556Z,13.88
2019-04-22T22:49:23.052Z,13.98
2019-04-22T22:52:00.126Z,13.22
2019-04-22T22:54:28.962Z,12.03
2019-04-22T22:57:19.537Z,11.80
2019-04-22T22:59:27.641Z,12.70
2019-04-22T23:02:04.950Z,12.07
2019-04-22T23:04:39.905Z,12.00
2019-04-22T23:07:11.511Z,11.78
2019-04-22T23:09:38.724Z,12.28
2019-04-22T23:12:28.874Z,11.35
2019-04-22T23:14:48.720Z,12.58
2019-04-22T23:17:03.103Z,11.35
2019-04-22T23:19:28.039Z,10.68
2019-04-22T23:22:05.500Z,10.18
2019-04-22T23:24:48.200Z,9.88
2019-04-22T23:27:40.285Z,9.93
2019-04-22T23:30:19.772Z,10.08
2019-04-22T23:33:01.254Z,9.30
2019-04-22T23:35:33.658Z,9.48
2019-04-22T23:38:06.278Z,10.00
2019-04-22T23:40:40.100Z,9.25
2019-04-22T23:43:23.669Z,8.83
2019-04-22T23:45:48.493Z,9.50
2019-04-22T23:48:11.682Z,9.15
2019-04-22T23:50:51.109Z,8.00
2019-04-22T23:56:11.091Z,8.90
2019-04-22T23:58:52.433Z,8.85
